Southend, Canada
Current Conditions -  °F | °C
As of 12:00 PM on Friday 21 Nov 2014 (Local Time) from CYYL Reporting Station
Light Snow Light Snow  
Wind Chill: 12°   Ceiling: 3800
Heat Index: 12°   Visibility: 9mi
Dew Point: 10°   Wind: 3mph
Humidity: 92%   Direction: 320°NW
Pressure: 29.35"   Gusts: NA
Location:  56.33°N, 103.24°W
Report Text: CYYL 211800Z AUTO 32003KT 9SM -SN BKN038 OVC050 M11/M12 A2935 RMK SLP970
Loading
Personal Weather Stations






























Interactive Weather Map New forecast layout! Learn more

10-Day Weather Forecast

Advertisements
Track Severe Weather on mobile